createdAt,value
2019-04-30T00:00:25.789Z,52.05
2019-04-30T00:01:25.142Z,74.12
2019-04-30T00:02:27.870Z,75.09
2019-04-30T00:03:25.582Z,51.40
2019-04-30T00:04:29.965Z,62.68
2019-04-30T00:05:25.788Z,54.95
2019-04-30T00:06:27.342Z,51.24
2019-04-30T00:07:27.121Z,59.46
2019-04-30T00:08:25.819Z,85.72
2019-04-30T00:09:26.554Z,73.80
2019-04-30T00:10:29.514Z,52.37
2019-04-30T00:11:27.831Z,78.79
2019-04-30T00:12:26.047Z,52.21
2019-04-30T00:13:26.197Z,51.40
2019-04-30T00:14:32.089Z,78.15
2019-04-30T00:15:29.089Z,51.72
2019-04-30T00:16:30.944Z,51.40
2019-04-30T00:17:27.889Z,73.48
2019-04-30T00:18:30.659Z,78.79
2019-04-30T00:19:28.265Z,81.53
2019-04-30T00:20:29.989Z,76.22
2019-04-30T00:21:29.642Z,50.92
2019-04-30T00:22:33.966Z,51.56
2019-04-30T00:23:30.937Z,51.72
2019-04-30T00:24:29.600Z,52.53
2019-04-30T00:25:29.087Z,51.72
2019-04-30T00:26:28.446Z,51.40
2019-04-30T00:27:30.274Z,51.88
2019-04-30T00:28:29.752Z,51.24
2019-04-30T00:29:30.951Z,52.05
2019-04-30T00:30:30.099Z,55.43
2019-04-30T00:31:29.198Z,51.72
2019-04-30T00:32:29.345Z,50.92
2019-04-30T00:33:29.563Z,51.88
2019-04-30T00:34:30.891Z,51.88
2019-04-30T00:35:31.816Z,71.54
2019-04-30T00:36:34.186Z,67.03
2019-04-30T00:37:32.222Z,72.99
2019-04-30T00:38:34.254Z,74.28
2019-04-30T00:39:31.712Z,72.67
2019-04-30T00:40:31.583Z,53.01
2019-04-30T00:41:31.581Z,73.15
2019-04-30T00:42:31.059Z,51.08
2019-04-30T00:43:32.078Z,72.83
2019-04-30T00:44:31.379Z,63.65
2019-04-30T00:45:32.089Z,78.15
2019-04-30T00:46:31.697Z,75.57
2019-04-30T00:47:31.820Z,52.69
2019-04-30T00:48:31.949Z,77.34
2019-04-30T00:49:32.086Z,51.24
2019-04-30T00:50:33.939Z,61.39
2019-04-30T00:51:35.303Z,75.09
2019-04-30T00:52:35.220Z,50.92
2019-04-30T00:53:35.794Z,51.56
2019-04-30T00:54:32.891Z,69.77
2019-04-30T00:55:33.099Z,61.39
2019-04-30T00:56:33.254Z,51.08
2019-04-30T00:57:38.832Z,51.88
2019-04-30T00:58:35.620Z,70.09
2019-04-30T00:59:35.102Z,52.37
2019-04-30T01:00:35.239Z,52.37
2019-04-30T01:01:39.266Z,51.72
2019-04-30T01:02:36.162Z,52.05
2019-04-30T01:03:39.348Z,52.05
2019-04-30T01:04:35.615Z,71.87
2019-04-30T01:05:39.526Z,72.67
2019-04-30T01:06:35.920Z,53.50
2019-04-30T01:07:40.079Z,52.05
2019-04-30T01:08:36.392Z,52.85
2019-04-30T01:09:39.551Z,76.86
2019-04-30T01:10:36.743Z,57.04
2019-04-30T01:11:39.759Z,53.01
2019-04-30T01:12:44.308Z,53.17
2019-04-30T01:13:41.426Z,50.92
2019-04-30T01:14:39.082Z,50.43
2019-04-30T01:15:39.067Z,51.40
2019-04-30T01:16:36.812Z,52.05
2019-04-30T01:17:38.237Z,52.05
2019-04-30T01:18:38.982Z,51.24
2019-04-30T01:19:39.612Z,51.72
2019-04-30T01:20:40.560Z,51.88
2019-04-30T01:21:46.528Z,51.72
2019-04-30T01:22:39.882Z,69.77
2019-04-30T01:23:41.821Z,51.88
2019-04-30T01:24:41.105Z,59.94
2019-04-30T01:25:38.864Z,70.09
2019-04-30T01:26:39.542Z,71.22
2019-04-30T01:27:39.445Z,72.99
2019-04-30T01:28:40.962Z,51.56
2019-04-30T01:29:44.149Z,52.85
2019-04-30T01:30:41.359Z,75.57
2019-04-30T01:31:40.802Z,53.33
2019-04-30T01:32:41.595Z,51.56
2019-04-30T01:33:39.953Z,51.24
2019-04-30T01:34:44.124Z,51.24
2019-04-30T01:35:41.283Z,51.56
2019-04-30T01:36:43.441Z,51.24
2019-04-30T01:37:42.570Z,59.94
2019-04-30T01:38:44.850Z,77.34
2019-04-30T01:39:42.611Z,63.49
2019-04-30T01:40:42.817Z,75.73
2019-04-30T01:41:44.097Z,52.69
2019-04-30T01:42:47.984Z,64.61
2019-04-30T01:43:43.599Z,53.17
2019-04-30T01:44:43.403Z,51.24
2019-04-30T01:45:44.103Z,52.53
2019-04-30T01:46:47.297Z,52.37
2019-04-30T01:47:44.311Z,51.72
2019-04-30T01:48:43.660Z,52.37
2019-04-30T01:49:44.948Z,71.54
2019-04-30T01:50:43.937Z,52.21
2019-04-30T01:51:43.041Z,59.78
2019-04-30T01:52:43.187Z,71.22
2019-04-30T01:53:44.842Z,76.70
2019-04-30T01:54:43.486Z,75.41
2019-04-30T01:55:43.649Z,62.04
2019-04-30T01:56:44.119Z,77.18
2019-04-30T01:57:44.604Z,52.05
2019-04-30T01:58:44.189Z,78.31
2019-04-30T01:59:44.318Z,79.76
2019-04-30T02:00:44.454Z,51.72
2019-04-30T02:01:45.605Z,70.58
2019-04-30T02:02:44.878Z,74.12
2019-04-30T02:03:45.027Z,65.42
2019-04-30T02:04:45.158Z,75.25
2019-04-30T02:05:46.100Z,62.36
2019-04-30T02:06:45.449Z,70.58
2019-04-30T02:07:46.049Z,72.35
2019-04-30T02:08:46.739Z,78.79
2019-04-30T02:09:45.965Z,76.54
2019-04-30T02:10:46.186Z,53.01
2019-04-30T02:11:46.446Z,60.10
2019-04-30T02:12:49.185Z,76.86
2019-04-30T02:13:46.728Z,52.21
2019-04-30T02:14:46.960Z,72.99
2019-04-30T02:15:49.051Z,79.76
2019-04-30T02:16:47.257Z,69.29
2019-04-30T02:17:50.266Z,75.89
2019-04-30T02:18:49.497Z,53.17
2019-04-30T02:19:56.567Z,52.53
2019-04-30T02:20:50.025Z,75.41
2019-04-30T02:21:49.216Z,76.05
2019-04-30T02:22:48.680Z,73.15
2019-04-30T02:23:49.573Z,54.62
2019-04-30T02:24:48.810Z,80.24
2019-04-30T02:25:49.180Z,60.91
2019-04-30T02:26:50.091Z,76.38
2019-04-30T02:27:49.305Z,79.92
2019-04-30T02:28:49.612Z,81.53
2019-04-30T02:29:50.534Z,60.59
2019-04-30T02:30:50.707Z,75.41
2019-04-30T02:31:50.896Z,75.89
2019-04-30T02:32:52.525Z,57.85
2019-04-30T02:33:50.415Z,79.92
2019-04-30T02:34:51.360Z,73.15
2019-04-30T02:35:51.151Z,60.59
2019-04-30T02:36:51.601Z,72.99
2019-04-30T02:37:50.934Z,79.28
2019-04-30T02:38:51.635Z,67.19
2019-04-30T02:39:51.381Z,76.22
2019-04-30T02:40:51.495Z,75.89
2019-04-30T02:41:51.626Z,77.02
2019-04-30T02:42:51.748Z,78.31
2019-04-30T02:43:52.129Z,78.15
2019-04-30T02:44:53.132Z,75.41
2019-04-30T02:45:53.109Z,81.53
2019-04-30T02:46:52.571Z,80.57
2019-04-30T02:47:52.801Z,77.18
2019-04-30T02:48:52.954Z,78.63
2019-04-30T02:49:53.647Z,77.83
2019-04-30T02:50:53.302Z,80.73
2019-04-30T02:51:53.436Z,75.09
2019-04-30T02:52:53.662Z,77.99
2019-04-30T02:53:53.905Z,79.60
2019-04-30T02:54:54.134Z,76.70
2019-04-30T02:55:54.251Z,68.32
2019-04-30T02:56:54.427Z,75.57
2019-04-30T02:57:54.503Z,81.69
2019-04-30T02:58:55.728Z,71.70
2019-04-30T02:59:55.121Z,77.83
2019-04-30T03:00:55.098Z,78.31
2019-04-30T03:01:55.233Z,77.18
2019-04-30T03:02:55.353Z,82.50
2019-04-30T03:03:56.114Z,79.44
2019-04-30T03:04:55.639Z,77.99
2019-04-30T03:05:55.765Z,78.31
2019-04-30T03:06:55.895Z,81.86
2019-04-30T03:07:56.014Z,78.31
2019-04-30T03:08:57.145Z,78.15
2019-04-30T03:09:56.360Z,78.96
2019-04-30T03:10:56.626Z,77.34
2019-04-30T03:11:56.611Z,79.12
2019-04-30T03:12:56.854Z,83.14
2019-04-30T03:13:59.270Z,78.31
2019-04-30T03:15:00.433Z,80.24
2019-04-30T03:15:59.317Z,79.44
2019-04-30T03:17:00.121Z,78.63
2019-04-30T03:18:00.669Z,79.76
2019-04-30T03:18:59.535Z,81.21
2019-04-30T03:20:03.126Z,79.76
2019-04-30T03:20:59.938Z,80.08
2019-04-30T03:22:00.328Z,77.99
2019-04-30T03:23:02.466Z,79.76
2019-04-30T03:24:00.652Z,80.08
2019-04-30T03:25:00.200Z,77.67
2019-04-30T03:25:59.795Z,78.15
2019-04-30T03:27:00.529Z,80.41
2019-04-30T03:28:00.301Z,82.02
2019-04-30T03:29:01.613Z,82.02
2019-04-30T03:30:00.257Z,80.08
2019-04-30T03:31:04.246Z,79.60
2019-04-30T03:32:03.289Z,79.28
2019-04-30T03:33:02.976Z,79.28
2019-04-30T03:34:25.458Z,79.76
2019-04-30T03:35:03.377Z,76.54
2019-04-30T03:36:02.845Z,82.66
2019-04-30T03:37:02.392Z,80.24
2019-04-30T03:38:02.135Z,80.08
2019-04-30T03:39:01.865Z,79.28
2019-04-30T03:40:02.096Z,80.89
2019-04-30T03:41:02.336Z,82.66
2019-04-30T03:42:03.122Z,79.60
2019-04-30T03:43:03.037Z,78.63
2019-04-30T03:44:17.090Z,77.99
2019-04-30T03:45:05.614Z,79.76
2019-04-30T03:46:03.293Z,80.08
2019-04-30T03:47:03.434Z,79.44
2019-04-30T03:48:04.137Z,82.82
2019-04-30T03:49:03.773Z,92.49
2019-04-30T03:50:03.900Z,82.02
2019-04-30T03:51:04.124Z,79.12
2019-04-30T03:52:05.123Z,79.12
2019-04-30T03:53:04.478Z,78.15
2019-04-30T03:54:04.623Z,82.34
2019-04-30T03:55:04.802Z,79.12
2019-04-30T03:56:05.621Z,80.41
2019-04-30T03:57:05.102Z,79.60
2019-04-30T03:58:05.229Z,81.53
2019-04-30T03:59:05.473Z,81.37
2019-04-30T04:00:05.598Z,80.73
2019-04-30T04:01:05.741Z,79.28
2019-04-30T04:02:12.284Z,81.37
2019-04-30T04:03:09.527Z,79.44
2019-04-30T04:04:06.237Z,80.08
2019-04-30T04:05:06.393Z,80.57
2019-04-30T04:06:09.402Z,82.34
2019-04-30T04:07:10.059Z,81.05
2019-04-30T04:08:09.583Z,78.96
2019-04-30T04:09:10.101Z,79.60
2019-04-30T04:10:09.887Z,78.79
2019-04-30T04:11:09.997Z,78.31
2019-04-30T04:12:11.853Z,77.99
2019-04-30T04:13:10.210Z,82.50
2019-04-30T04:14:09.298Z,79.44
2019-04-30T04:15:10.408Z,79.44
2019-04-30T04:16:09.732Z,81.37
2019-04-30T04:17:09.954Z,78.96
2019-04-30T04:18:10.598Z,80.41
2019-04-30T04:19:10.131Z,78.63
2019-04-30T04:20:10.749Z,78.31
2019-04-30T04:21:16.217Z,79.12
2019-04-30T04:22:12.395Z,80.89
2019-04-30T04:23:10.699Z,80.24
2019-04-30T04:24:10.727Z,79.12
2019-04-30T04:25:13.251Z,81.53
2019-04-30T04:26:11.276Z,79.44
2019-04-30T04:27:10.500Z,80.24
2019-04-30T04:28:11.126Z,82.50
2019-04-30T04:29:12.488Z,81.05
2019-04-30T04:30:12.121Z,77.67
2019-04-30T04:31:12.136Z,78.15
2019-04-30T04:32:11.363Z,80.08
2019-04-30T04:33:12.126Z,79.44
2019-04-30T04:34:11.716Z,79.92
2019-04-30T04:35:12.706Z,78.79
2019-04-30T04:36:13.639Z,79.76
2019-04-30T04:37:12.247Z,82.34
2019-04-30T04:38:13.137Z,83.14
2019-04-30T04:39:12.612Z,82.98
2019-04-30T04:40:12.751Z,77.67
2019-04-30T04:41:12.862Z,80.73
2019-04-30T04:42:12.985Z,80.57
2019-04-30T04:43:13.220Z,80.73
2019-04-30T04:44:13.375Z,83.14
2019-04-30T04:45:13.502Z,80.24
2019-04-30T04:46:13.645Z,82.34
2019-04-30T04:47:16.054Z,82.50
2019-04-30T04:48:14.934Z,80.89
2019-04-30T04:49:14.123Z,81.21
2019-04-30T04:50:14.339Z,81.53
2019-04-30T04:51:31.450Z,81.21
2019-04-30T04:52:15.782Z,78.47
2019-04-30T04:53:15.632Z,81.53
2019-04-30T04:54:15.106Z,80.73
2019-04-30T04:55:15.329Z,77.50
2019-04-30T04:56:15.584Z,79.92
2019-04-30T04:57:19.579Z,80.73
2019-04-30T04:58:21.569Z,79.12
2019-04-30T04:59:16.080Z,78.31
2019-04-30T05:00:16.324Z,81.21
2019-04-30T05:01:16.660Z,79.12
2019-04-30T05:02:19.475Z,80.08
2019-04-30T05:03:16.885Z,79.44
2019-04-30T05:04:19.724Z,80.24
2019-04-30T05:05:19.249Z,82.98
2019-04-30T05:06:21.255Z,79.12
2019-04-30T05:07:19.570Z,79.12
2019-04-30T05:08:18.582Z,80.41
2019-04-30T05:09:19.474Z,78.15
2019-04-30T05:10:19.310Z,78.47
2019-04-30T05:11:19.327Z,80.89
2019-04-30T05:12:19.314Z,79.12
2019-04-30T05:13:19.229Z,81.69
2019-04-30T05:14:19.646Z,81.69
2019-04-30T05:15:19.453Z,81.05
2019-04-30T05:16:20.657Z,80.73
2019-04-30T05:17:19.523Z,82.02
2019-04-30T05:18:22.779Z,81.53
2019-04-30T05:19:20.627Z,84.92
2019-04-30T05:20:19.836Z,77.83
2019-04-30T05:21:20.062Z,78.96
2019-04-30T05:22:20.318Z,81.37
2019-04-30T05:23:21.882Z,79.60
2019-04-30T05:24:21.584Z,82.66
2019-04-30T05:25:21.669Z,79.76
2019-04-30T05:26:22.823Z,80.73
2019-04-30T05:27:21.156Z,78.47
2019-04-30T05:28:21.283Z,78.15
2019-04-30T05:29:21.518Z,82.02
2019-04-30T05:30:22.139Z,82.50
2019-04-30T05:31:21.846Z,79.92
2019-04-30T05:32:22.079Z,81.05
2019-04-30T05:33:23.243Z,81.21
2019-04-30T05:34:23.140Z,80.24
2019-04-30T05:35:22.642Z,80.24
2019-04-30T05:36:22.773Z,80.89
2019-04-30T05:37:22.915Z,81.37
2019-04-30T05:38:23.091Z,77.34
2019-04-30T05:39:23.235Z,80.24
2019-04-30T05:40:23.349Z,79.12
2019-04-30T05:41:23.501Z,86.85
2019-04-30T05:42:23.739Z,80.24
2019-04-30T05:43:23.871Z,77.83
2019-04-30T05:44:23.993Z,79.76
2019-04-30T05:45:24.104Z,85.08
2019-04-30T05:46:24.335Z,78.15
2019-04-30T05:47:24.456Z,82.02
2019-04-30T05:48:24.726Z,79.76
2019-04-30T05:49:24.836Z,78.31
2019-04-30T05:50:25.638Z,79.60
2019-04-30T05:51:25.108Z,80.24
2019-04-30T05:52:25.257Z,77.34
2019-04-30T05:53:25.666Z,80.08
2019-04-30T05:54:25.536Z,78.63
2019-04-30T05:55:25.768Z,81.05
2019-04-30T05:56:25.910Z,82.02
2019-04-30T05:57:26.033Z,81.05
2019-04-30T05:58:26.657Z,80.89
2019-04-30T05:59:26.417Z,79.60
2019-04-30T06:00:30.279Z,81.53
2019-04-30T06:01:26.702Z,77.50
2019-04-30T06:02:30.634Z,78.96
2019-04-30T06:03:32.511Z,79.28
2019-04-30T06:04:29.480Z,80.08
2019-04-30T06:05:28.570Z,82.18
2019-04-30T06:06:29.002Z,77.18
2019-04-30T06:07:29.799Z,79.44
2019-04-30T06:08:29.222Z,80.08
2019-04-30T06:09:33.760Z,81.37
2019-04-30T06:10:29.495Z,78.96
2019-04-30T06:11:29.520Z,79.12
2019-04-30T06:12:29.166Z,80.24
2019-04-30T06:13:28.850Z,80.08
2019-04-30T06:14:29.127Z,80.57
2019-04-30T06:15:29.234Z,81.86
2019-04-30T06:16:30.143Z,82.18
2019-04-30T06:17:29.595Z,79.60
2019-04-30T06:18:30.656Z,77.83
2019-04-30T06:19:30.000Z,80.08
2019-04-30T06:20:30.251Z,80.08
2019-04-30T06:21:30.374Z,79.12
2019-04-30T06:22:30.502Z,80.73
2019-04-30T06:23:31.161Z,79.12
2019-04-30T06:24:30.873Z,81.21
2019-04-30T06:25:45.577Z,82.02
2019-04-30T06:26:33.128Z,82.82
2019-04-30T06:27:31.301Z,80.89
2019-04-30T06:28:31.510Z,79.60
2019-04-30T06:29:31.721Z,82.66
2019-04-30T06:30:32.173Z,78.63
2019-04-30T06:31:37.246Z,82.66
2019-04-30T06:32:34.304Z,80.24
2019-04-30T06:33:32.507Z,77.83
2019-04-30T06:34:32.625Z,78.31
2019-04-30T06:35:32.842Z,78.47
2019-04-30T06:36:33.652Z,87.82
2019-04-30T06:37:33.267Z,81.21
2019-04-30T06:38:33.387Z,79.44
2019-04-30T06:39:33.599Z,81.21
2019-04-30T06:40:33.750Z,79.92
2019-04-30T06:41:34.657Z,79.44
2019-04-30T06:42:34.001Z,78.15
2019-04-30T06:43:34.659Z,79.60
2019-04-30T06:44:37.377Z,78.79
2019-04-30T06:45:38.644Z,79.44
2019-04-30T06:46:34.636Z,76.22
2019-04-30T06:47:34.764Z,78.15
2019-04-30T06:48:34.896Z,78.63
2019-04-30T06:49:35.650Z,81.69
2019-04-30T06:50:35.245Z,81.53
2019-04-30T06:51:35.464Z,81.05
2019-04-30T06:52:35.617Z,79.28
2019-04-30T06:53:35.760Z,81.21
2019-04-30T06:54:36.659Z,81.05
2019-04-30T06:55:36.031Z,79.60
2019-04-30T06:56:38.720Z,79.60
2019-04-30T06:57:38.288Z,81.21
2019-04-30T06:58:39.180Z,80.24
2019-04-30T06:59:39.217Z,79.28
2019-04-30T07:00:36.872Z,78.31
2019-04-30T07:01:38.769Z,78.47
2019-04-30T07:02:39.168Z,81.37
2019-04-30T07:03:38.825Z,78.47
2019-04-30T07:04:37.587Z,76.70
2019-04-30T07:05:38.898Z,79.44
2019-04-30T07:06:44.008Z,81.37
2019-04-30T07:07:41.674Z,74.44
2019-04-30T07:08:42.798Z,79.12
2019-04-30T07:09:51.966Z,81.86
2019-04-30T07:10:52.940Z,78.96
2019-04-30T07:11:40.967Z,79.44
2019-04-30T07:12:40.165Z,80.57
2019-04-30T07:13:39.594Z,80.73
2019-04-30T07:14:41.953Z,81.37
2019-04-30T07:15:40.850Z,79.60
2019-04-30T07:16:39.953Z,78.47
2019-04-30T07:17:40.699Z,79.60
2019-04-30T07:18:41.341Z,77.67
2019-04-30T07:19:53.353Z,77.83
2019-04-30T07:20:42.755Z,77.67
2019-04-30T07:21:42.856Z,79.92
2019-04-30T07:22:50.084Z,78.63
2019-04-30T07:23:43.271Z,79.28
2019-04-30T07:24:41.495Z,79.44
2019-04-30T07:25:41.625Z,79.92
2019-04-30T07:26:41.750Z,77.99
2019-04-30T07:27:41.891Z,78.96
2019-04-30T07:29:44.331Z,79.76
2019-04-30T07:30:42.545Z,79.12
2019-04-30T07:31:43.667Z,78.31
2019-04-30T07:32:42.905Z,78.79
2019-04-30T07:33:43.084Z,79.60
2019-04-30T07:34:43.276Z,81.37
2019-04-30T07:35:43.413Z,78.31
2019-04-30T07:36:49.133Z,83.47
2019-04-30T07:37:45.685Z,85.56
2019-04-30T07:38:51.890Z,80.89
2019-04-30T07:39:46.675Z,78.47
2019-04-30T07:40:44.138Z,81.69
2019-04-30T07:41:44.682Z,79.92
2019-04-30T07:42:44.971Z,78.96
2019-04-30T07:43:45.694Z,79.44
2019-04-30T07:44:44.799Z,79.44
2019-04-30T07:45:45.671Z,77.50
2019-04-30T07:46:45.439Z,79.28
2019-04-30T07:47:46.309Z,80.08
2019-04-30T07:48:45.680Z,78.31
2019-04-30T07:49:51.831Z,79.60
2019-04-30T07:50:51.487Z,81.69
2019-04-30T07:51:46.847Z,78.96
2019-04-30T07:53:01.047Z,78.31
2019-04-30T07:53:49.635Z,78.31
2019-04-30T07:54:46.660Z,79.44
2019-04-30T07:55:49.385Z,78.79
2019-04-30T07:56:47.048Z,78.47
2019-04-30T07:57:50.117Z,85.72
2019-04-30T07:58:47.388Z,79.28
2019-04-30T07:59:49.701Z,79.28
2019-04-30T08:00:50.341Z,80.73
2019-04-30T08:02:03.251Z,84.43
2019-04-30T08:02:50.437Z,79.60
2019-04-30T08:03:50.244Z,78.31
2019-04-30T08:04:51.131Z,81.69
2019-04-30T08:05:50.012Z,79.44
2019-04-30T08:06:50.032Z,79.12
2019-04-30T08:07:49.960Z,77.83
2019-04-30T08:08:50.759Z,94.91
2019-04-30T08:09:34.156Z,78.63
2019-04-30T08:09:50.250Z,77.67
2019-04-30T08:10:50.999Z,79.76
2019-04-30T08:11:49.659Z,78.47
2019-04-30T08:12:50.852Z,79.60
2019-04-30T08:13:51.710Z,80.41
2019-04-30T08:14:50.303Z,76.38
2019-04-30T08:15:50.418Z,77.99
2019-04-30T08:17:12.181Z,79.76
2019-04-30T08:18:02.842Z,78.15
2019-04-30T08:18:51.966Z,80.89
2019-04-30T08:19:51.195Z,78.47
2019-04-30T08:20:51.691Z,79.76
2019-04-30T08:21:52.181Z,78.79
2019-04-30T08:22:52.692Z,77.99
2019-04-30T08:23:51.897Z,84.11
2019-04-30T08:24:52.024Z,79.12
2019-04-30T08:25:52.698Z,78.63
2019-04-30T08:26:52.431Z,80.89
2019-04-30T08:27:52.655Z,81.53
2019-04-30T08:28:53.676Z,83.14
2019-04-30T08:29:53.023Z,75.73
2019-04-30T08:30:53.165Z,78.15
2019-04-30T08:31:53.287Z,79.44
2019-04-30T08:32:53.415Z,81.53
2019-04-30T08:33:53.654Z,80.08
2019-04-30T08:34:53.770Z,78.79
2019-04-30T08:35:53.915Z,78.79
2019-04-30T08:36:54.860Z,78.47
2019-04-30T08:37:54.267Z,78.79
2019-04-30T08:38:55.196Z,79.92
2019-04-30T08:39:55.177Z,77.99
2019-04-30T08:40:58.297Z,76.70
2019-04-30T08:41:56.011Z,77.50
2019-04-30T08:42:55.186Z,78.63
2019-04-30T08:43:55.409Z,78.63
2019-04-30T08:44:55.680Z,76.70
2019-04-30T08:45:56.685Z,75.73
2019-04-30T08:46:56.191Z,78.96
2019-04-30T08:47:56.678Z,82.66
2019-04-30T08:48:56.275Z,77.50
2019-04-30T08:49:56.580Z,77.99
2019-04-30T08:50:56.693Z,78.63
2019-04-30T08:51:58.575Z,82.82
2019-04-30T08:52:56.949Z,85.72
2019-04-30T08:53:58.703Z,77.67
2019-04-30T08:55:10.786Z,81.37
2019-04-30T08:55:59.147Z,75.73
2019-04-30T08:56:59.415Z,78.47
2019-04-30T08:58:09.325Z,81.05
2019-04-30T08:59:00.042Z,83.47
2019-04-30T09:00:00.188Z,76.86
2019-04-30T09:00:58.848Z,80.57
2019-04-30T09:02:12.560Z,81.53
2019-04-30T09:02:59.731Z,77.67
2019-04-30T09:03:59.969Z,76.38
2019-04-30T09:05:00.516Z,78.79
2019-04-30T09:05:59.702Z,82.02
2019-04-30T09:06:59.965Z,78.96
2019-04-30T09:08:00.632Z,74.77
2019-04-30T09:09:00.681Z,77.50
2019-04-30T09:10:01.288Z,76.86
2019-04-30T09:11:01.249Z,77.02
2019-04-30T09:12:00.450Z,80.24
2019-04-30T09:13:00.724Z,76.38
2019-04-30T09:14:00.873Z,78.63
2019-04-30T09:15:00.996Z,78.31
2019-04-30T09:16:01.123Z,77.83
2019-04-30T09:17:01.380Z,79.44
2019-04-30T09:18:05.999Z,82.82
2019-04-30T09:19:04.191Z,74.93
2019-04-30T09:20:01.930Z,78.96
2019-04-30T09:21:06.244Z,84.27
2019-04-30T09:22:03.354Z,75.73
2019-04-30T09:23:02.580Z,81.69
2019-04-30T09:24:02.711Z,76.70
2019-04-30T09:25:02.870Z,77.67
2019-04-30T09:26:04.017Z,76.86
2019-04-30T09:27:03.275Z,77.83
2019-04-30T09:28:04.534Z,79.92
2019-04-30T09:29:04.704Z,87.01
2019-04-30T09:30:03.822Z,75.89
2019-04-30T09:31:03.970Z,78.79
2019-04-30T09:32:04.101Z,79.60
2019-04-30T09:33:04.254Z,77.50
2019-04-30T09:34:14.291Z,76.05
2019-04-30T09:35:05.609Z,75.89
2019-04-30T09:36:04.846Z,78.15
2019-04-30T09:37:05.711Z,75.73
2019-04-30T09:38:05.215Z,77.34
2019-04-30T09:39:05.357Z,78.79
2019-04-30T09:40:15.303Z,78.47
2019-04-30T09:41:09.273Z,75.09
2019-04-30T09:42:05.896Z,77.67
2019-04-30T09:43:06.006Z,78.79
2019-04-30T09:44:07.215Z,83.14
2019-04-30T09:45:06.490Z,77.67
2019-04-30T09:46:19.061Z,76.54
2019-04-30T09:47:08.988Z,76.54
2019-04-30T09:48:09.388Z,73.96
2019-04-30T09:49:09.625Z,77.50
2019-04-30T09:50:09.131Z,76.22
2019-04-30T09:51:10.232Z,76.05
2019-04-30T09:52:09.229Z,76.86
2019-04-30T09:53:10.029Z,79.44
2019-04-30T09:54:12.735Z,76.05
2019-04-30T09:55:09.599Z,78.96
2019-04-30T09:56:09.555Z,76.54
2019-04-30T09:57:11.494Z,77.67
2019-04-30T09:58:17.032Z,77.99
2019-04-30T09:59:11.121Z,77.02
2019-04-30T10:00:09.488Z,78.79
2019-04-30T10:01:11.105Z,74.93
2019-04-30T10:02:09.667Z,76.22
2019-04-30T10:03:11.035Z,76.22
2019-04-30T10:04:11.591Z,79.92
2019-04-30T10:05:10.963Z,81.86
2019-04-30T10:06:10.731Z,80.73
2019-04-30T10:07:10.489Z,79.76
2019-04-30T10:08:10.657Z,75.57
2019-04-30T10:09:10.791Z,78.31
2019-04-30T10:10:11.496Z,76.05
2019-04-30T10:11:12.168Z,75.73
2019-04-30T10:12:11.311Z,76.22
2019-04-30T10:13:11.460Z,74.77
2019-04-30T10:14:11.604Z,77.50
2019-04-30T10:15:11.781Z,79.76
2019-04-30T10:16:11.928Z,79.28
2019-04-30T10:17:12.113Z,77.18
2019-04-30T10:18:12.274Z,77.34
2019-04-30T10:19:14.883Z,77.18
2019-04-30T10:20:12.646Z,77.18
2019-04-30T10:21:12.882Z,75.73
2019-04-30T10:22:13.022Z,76.38
2019-04-30T10:23:13.177Z,78.96
2019-04-30T10:24:15.681Z,74.44
2019-04-30T10:25:14.529Z,76.22
2019-04-30T10:26:14.223Z,77.83
2019-04-30T10:27:13.911Z,81.05
2019-04-30T10:28:14.017Z,76.86
2019-04-30T10:29:14.286Z,80.08
2019-04-30T10:30:14.534Z,79.76
2019-04-30T10:31:14.639Z,78.47
2019-04-30T10:32:14.869Z,76.05
2019-04-30T10:33:15.095Z,74.44
2019-04-30T10:34:16.342Z,75.41
2019-04-30T10:35:15.574Z,77.83
2019-04-30T10:36:15.737Z,77.50
2019-04-30T10:37:15.868Z,76.70
2019-04-30T10:38:15.995Z,81.37
2019-04-30T10:39:16.139Z,78.31
2019-04-30T10:40:16.278Z,76.22
2019-04-30T10:41:18.286Z,76.70
2019-04-30T10:42:16.646Z,77.67
2019-04-30T10:43:16.780Z,78.96
2019-04-30T10:44:18.695Z,76.70
2019-04-30T10:45:18.596Z,76.22
2019-04-30T10:46:17.229Z,76.86
2019-04-30T10:47:19.263Z,76.22
2019-04-30T10:48:17.576Z,77.18
2019-04-30T10:49:19.220Z,78.15
2019-04-30T10:50:17.902Z,77.67
2019-04-30T10:51:18.929Z,77.83
2019-04-30T10:52:19.342Z,75.73
2019-04-30T10:53:19.439Z,80.24
2019-04-30T10:54:26.085Z,76.22
2019-04-30T10:55:21.723Z,79.76
2019-04-30T10:56:19.338Z,75.57
2019-04-30T10:57:20.258Z,76.70
2019-04-30T10:58:19.376Z,77.67
2019-04-30T10:59:19.479Z,77.50
2019-04-30T11:00:19.622Z,77.67
2019-04-30T11:01:19.746Z,80.41
2019-04-30T11:02:19.892Z,75.41
2019-04-30T11:03:22.932Z,83.31
2019-04-30T11:04:21.173Z,76.22
2019-04-30T11:05:21.114Z,76.38
2019-04-30T11:06:21.604Z,79.12
2019-04-30T11:07:20.829Z,82.18
2019-04-30T11:08:20.984Z,76.54
2019-04-30T11:09:21.123Z,74.60
2019-04-30T11:10:21.239Z,74.93
2019-04-30T11:11:21.476Z,76.86
2019-04-30T11:12:21.614Z,81.37
2019-04-30T11:13:21.743Z,75.41
2019-04-30T11:14:21.901Z,76.70
2019-04-30T11:15:22.016Z,77.18
2019-04-30T11:16:22.160Z,75.89
2019-04-30T11:17:22.366Z,74.28
2019-04-30T11:18:22.703Z,78.63
2019-04-30T11:19:22.900Z,77.67
2019-04-30T11:20:23.010Z,77.67
2019-04-30T11:21:23.148Z,77.18
2019-04-30T11:22:23.300Z,74.77
2019-04-30T11:23:23.501Z,79.44
2019-04-30T11:24:35.800Z,77.50
2019-04-30T11:25:25.210Z,76.22
2019-04-30T11:26:24.339Z,77.18
2019-04-30T11:27:25.625Z,77.50
2019-04-30T11:28:24.728Z,75.89
2019-04-30T11:29:24.584Z,79.12
2019-04-30T11:30:24.956Z,74.44
2019-04-30T11:31:25.981Z,75.41
2019-04-30T11:32:25.124Z,75.41
2019-04-30T11:33:25.829Z,75.73
2019-04-30T11:34:28.046Z,78.47
2019-04-30T11:35:25.494Z,76.38
2019-04-30T11:36:25.733Z,86.21
2019-04-30T11:37:25.866Z,76.22
2019-04-30T11:38:26.113Z,75.57
2019-04-30T11:39:26.750Z,74.28
2019-04-30T11:40:34.439Z,77.83
2019-04-30T11:41:31.012Z,79.28
2019-04-30T11:42:28.861Z,80.73
2019-04-30T11:43:27.082Z,82.50
2019-04-30T11:44:31.326Z,85.24
2019-04-30T11:45:29.400Z,80.24
2019-04-30T11:46:28.818Z,75.89
2019-04-30T11:47:28.842Z,79.76
2019-04-30T11:48:28.930Z,77.50
2019-04-30T11:49:29.743Z,83.79
2019-04-30T11:50:30.142Z,84.92
2019-04-30T11:51:29.513Z,84.76
2019-04-30T11:52:29.682Z,88.30
2019-04-30T11:53:30.706Z,81.21
2019-04-30T11:54:30.126Z,79.12
2019-04-30T11:55:29.769Z,76.70
2019-04-30T11:56:29.485Z,85.56
2019-04-30T11:57:30.620Z,76.38
2019-04-30T11:58:30.582Z,75.73
2019-04-30T11:59:31.045Z,76.54
2019-04-30T12:00:30.743Z,74.12
2019-04-30T12:01:31.251Z,85.08
2019-04-30T12:02:30.729Z,83.63
2019-04-30T12:03:30.862Z,91.36
2019-04-30T12:04:30.995Z,79.60
2019-04-30T12:05:31.147Z,77.50
2019-04-30T12:06:31.292Z,74.12
2019-04-30T12:07:32.241Z,74.44
2019-04-30T12:08:31.568Z,77.02
2019-04-30T12:09:31.685Z,74.44
2019-04-30T12:10:31.837Z,74.93
2019-04-30T12:11:31.971Z,75.73
2019-04-30T12:12:32.104Z,76.22
2019-04-30T12:13:32.247Z,75.09
2019-04-30T12:14:33.274Z,76.70
2019-04-30T12:15:32.504Z,82.50
2019-04-30T12:16:33.751Z,75.73
2019-04-30T12:17:33.796Z,77.67
2019-04-30T12:18:33.744Z,74.12
2019-04-30T12:19:33.257Z,75.41
2019-04-30T12:20:33.639Z,78.79
2019-04-30T12:21:34.617Z,76.70
2019-04-30T12:22:33.702Z,76.54
2019-04-30T12:23:34.745Z,77.18
2019-04-30T12:24:33.977Z,85.08
2019-04-30T12:25:34.190Z,78.96
2019-04-30T12:26:34.297Z,74.93
2019-04-30T12:27:34.437Z,78.15
2019-04-30T12:28:35.241Z,76.86
2019-04-30T12:29:35.253Z,75.57
2019-04-30T12:30:34.862Z,77.83
2019-04-30T12:31:35.085Z,76.54
2019-04-30T12:32:35.386Z,78.15
2019-04-30T12:33:37.268Z,75.09
2019-04-30T12:34:35.700Z,80.57
2019-04-30T12:35:35.909Z,78.96
2019-04-30T12:36:36.122Z,79.76
2019-04-30T12:37:39.057Z,77.50
2019-04-30T12:38:37.604Z,76.22
2019-04-30T12:39:36.800Z,75.57
2019-04-30T12:40:38.914Z,84.27
2019-04-30T12:41:38.988Z,74.60
2019-04-30T12:42:38.442Z,74.60
2019-04-30T12:44:10.956Z,74.60
2019-04-30T12:44:39.875Z,77.18
2019-04-30T12:45:39.780Z,77.02
2019-04-30T12:46:38.710Z,77.50
2019-04-30T12:47:39.379Z,78.47
2019-04-30T12:48:39.735Z,77.18
2019-04-30T12:49:39.810Z,106.99
2019-04-30T12:50:39.247Z,83.47
2019-04-30T12:51:46.080Z,77.18
2019-04-30T12:52:41.381Z,77.99
2019-04-30T12:53:39.588Z,76.38
2019-04-30T12:54:40.681Z,86.69